createdAt,value
2019-04-09T00:00:05.069Z,10.62
2019-04-09T00:01:05.870Z,10.75
2019-04-09T00:02:05.456Z,10.62
2019-04-09T00:03:05.584Z,10.50
2019-04-09T00:04:06.023Z,10.44
2019-04-09T00:05:06.122Z,10.38
2019-04-09T00:06:05.526Z,10.56
2019-04-09T00:07:06.111Z,10.69
2019-04-09T00:08:07.929Z,10.56
2019-04-09T00:09:05.931Z,10.50
2019-04-09T00:10:05.943Z,10.44
2019-04-09T00:11:05.832Z,10.38
2019-04-09T00:12:05.524Z,10.31
2019-04-09T00:13:05.945Z,10.38
2019-04-09T00:14:07.000Z,10.38
2019-04-09T00:15:05.432Z,10.31
2019-04-09T00:16:05.687Z,10.31
2019-04-09T00:17:06.087Z,10.25
2019-04-09T00:18:06.009Z,10.19
2019-04-09T00:19:06.124Z,10.12
2019-04-09T00:20:06.191Z,10.12
2019-04-09T00:21:06.118Z,10.19
2019-04-09T00:22:05.758Z,10.19
2019-04-09T00:23:06.013Z,10.19
2019-04-09T00:24:05.620Z,10.25
2019-04-09T00:25:06.180Z,10.25
2019-04-09T00:26:05.934Z,10.25
2019-04-09T00:27:05.452Z,10.19
2019-04-09T00:28:05.698Z,10.25
2019-04-09T00:29:05.778Z,10.25
2019-04-09T00:30:05.358Z,10.25
2019-04-09T00:31:06.564Z,10.38
2019-04-09T00:32:05.841Z,10.25
2019-04-09T00:33:05.690Z,10.19
2019-04-09T00:34:05.296Z,10.25
2019-04-09T00:35:05.378Z,10.25
2019-04-09T00:36:06.894Z,10.12
2019-04-09T00:37:05.533Z,10.06
2019-04-09T00:38:06.505Z,10.06
2019-04-09T00:39:05.941Z,10.06
2019-04-09T00:40:05.984Z,10.06
2019-04-09T00:41:05.555Z,10.06
2019-04-09T00:42:05.535Z,10.00
2019-04-09T00:43:06.023Z,10.00
2019-04-09T00:44:06.155Z,9.88
2019-04-09T00:45:05.938Z,9.81
2019-04-09T00:46:05.689Z,9.75
2019-04-09T00:47:05.972Z,9.69
2019-04-09T00:48:05.620Z,9.69
2019-04-09T00:49:05.711Z,9.69
2019-04-09T00:50:06.372Z,9.75
2019-04-09T00:51:06.274Z,9.75
2019-04-09T00:52:06.186Z,9.81
2019-04-09T00:53:05.781Z,9.81
2019-04-09T00:54:05.459Z,9.81
2019-04-09T00:55:06.207Z,9.81
2019-04-09T00:56:06.316Z,9.81
2019-04-09T00:57:08.866Z,9.94
2019-04-09T00:58:05.942Z,9.88
2019-04-09T00:59:05.558Z,9.88
2019-04-09T01:00:05.764Z,9.75
2019-04-09T01:01:05.722Z,9.75
2019-04-09T01:02:05.364Z,9.75
2019-04-09T01:03:05.784Z,9.75
2019-04-09T01:04:05.469Z,9.75
2019-04-09T01:05:05.523Z,9.69
2019-04-09T01:06:06.845Z,9.75
2019-04-09T01:07:05.965Z,9.75
2019-04-09T01:08:05.684Z,9.81
2019-04-09T01:09:05.444Z,9.75
2019-04-09T01:10:06.663Z,9.75
2019-04-09T01:11:05.530Z,9.69
2019-04-09T01:12:05.973Z,9.69
2019-04-09T01:13:06.340Z,9.69
2019-04-09T01:14:05.303Z,9.69
2019-04-09T01:15:06.507Z,9.69
2019-04-09T01:16:05.303Z,9.69
2019-04-09T01:17:06.934Z,9.69
2019-04-09T01:18:05.673Z,9.75
2019-04-09T01:19:11.790Z,9.88
2019-04-09T01:20:05.835Z,9.88
2019-04-09T01:21:06.907Z,9.88
2019-04-09T01:22:06.046Z,9.88
2019-04-09T01:23:06.053Z,9.88
2019-04-09T01:24:05.523Z,9.88
2019-04-09T01:25:06.166Z,9.88
2019-04-09T01:26:06.088Z,9.81
2019-04-09T01:27:13.458Z,9.94
2019-04-09T01:28:06.257Z,9.94
2019-04-09T01:29:05.777Z,9.94
2019-04-09T01:30:05.395Z,9.94
2019-04-09T01:31:05.923Z,10.00
2019-04-09T01:32:05.146Z,10.19
2019-04-09T01:33:06.476Z,10.12
2019-04-09T01:34:05.881Z,10.06
2019-04-09T01:35:05.530Z,10.12
2019-04-09T01:36:05.453Z,10.06
2019-04-09T01:37:06.360Z,10.06
2019-04-09T01:38:06.160Z,10.19
2019-04-09T01:39:05.870Z,10.25
2019-04-09T01:40:05.304Z,10.12
2019-04-09T01:41:06.400Z,10.12
2019-04-09T01:42:06.540Z,10.12
2019-04-09T01:43:06.020Z,10.19
2019-04-09T01:44:05.613Z,10.19
2019-04-09T01:45:05.936Z,10.19
2019-04-09T01:46:06.368Z,10.12
2019-04-09T01:47:06.205Z,10.19
2019-04-09T01:48:05.785Z,10.19
2019-04-09T01:49:06.053Z,10.44
2019-04-09T01:50:05.340Z,10.38
2019-04-09T01:51:06.319Z,10.31
2019-04-09T01:52:05.828Z,10.25
2019-04-09T01:53:06.097Z,10.19
2019-04-09T01:54:05.358Z,10.12
2019-04-09T01:55:05.932Z,10.12
2019-04-09T01:56:05.213Z,10.06
2019-04-09T01:57:05.618Z,10.06
2019-04-09T01:58:06.209Z,10.00
2019-04-09T01:59:06.238Z,10.00
2019-04-09T02:00:05.921Z,10.00
2019-04-09T02:01:05.971Z,10.00
2019-04-09T02:02:05.467Z,10.00
2019-04-09T02:03:06.674Z,10.06
2019-04-09T02:04:05.947Z,10.00
2019-04-09T02:05:05.622Z,10.12
2019-04-09T02:06:05.684Z,10.12
2019-04-09T02:07:05.928Z,10.38
2019-04-09T02:08:05.783Z,10.31
2019-04-09T02:09:05.445Z,10.31
2019-04-09T02:10:05.511Z,10.31
2019-04-09T02:11:06.865Z,10.25
2019-04-09T02:12:06.201Z,10.19
2019-04-09T02:13:05.848Z,10.19
2019-04-09T02:14:05.309Z,10.12
2019-04-09T02:15:05.764Z,10.12
2019-04-09T02:16:06.135Z,10.12
2019-04-09T02:17:05.862Z,10.06
2019-04-09T02:18:05.469Z,10.06
2019-04-09T02:19:05.950Z,10.06
2019-04-09T02:20:06.386Z,10.06
2019-04-09T02:21:06.660Z,10.00
2019-04-09T02:22:06.075Z,10.00
2019-04-09T02:23:05.352Z,9.94
2019-04-09T02:24:05.533Z,9.94
2019-04-09T02:25:06.123Z,9.88
2019-04-09T02:26:06.088Z,9.88
2019-04-09T02:27:05.695Z,9.88
2019-04-09T02:28:05.838Z,9.94
2019-04-09T02:29:06.591Z,9.88
2019-04-09T02:30:06.415Z,9.94
2019-04-09T02:31:06.177Z,9.88
2019-04-09T02:32:05.288Z,9.81
2019-04-09T02:33:07.149Z,9.88
2019-04-09T02:34:07.098Z,9.81
2019-04-09T02:35:05.294Z,9.81
2019-04-09T02:36:06.149Z,9.94
2019-04-09T02:37:05.048Z,9.94
2019-04-09T02:38:06.073Z,9.94
2019-04-09T02:39:05.455Z,9.94
2019-04-09T02:40:05.689Z,9.81
2019-04-09T02:41:05.213Z,9.88
2019-04-09T02:42:06.241Z,9.88
2019-04-09T02:43:06.114Z,9.81
2019-04-09T02:44:06.256Z,9.75
2019-04-09T02:45:06.313Z,9.81
2019-04-09T02:46:06.208Z,9.75
2019-04-09T02:47:05.760Z,9.81
2019-04-09T02:48:07.178Z,9.88
2019-04-09T02:49:06.193Z,9.81
2019-04-09T02:50:06.186Z,9.88
2019-04-09T02:51:05.845Z,9.94
2019-04-09T02:52:05.214Z,10.06
2019-04-09T02:53:05.533Z,10.00
2019-04-09T02:54:05.988Z,9.94
2019-04-09T02:55:06.648Z,10.06
2019-04-09T02:56:05.662Z,10.00
2019-04-09T02:57:05.592Z,9.94
2019-04-09T02:58:06.528Z,9.94
2019-04-09T02:59:05.206Z,9.88
2019-04-09T03:00:05.562Z,9.88
2019-04-09T03:01:05.207Z,9.94
2019-04-09T03:02:05.570Z,9.81
2019-04-09T03:03:05.135Z,9.75
2019-04-09T03:04:05.366Z,9.69
2019-04-09T03:05:06.359Z,9.56
2019-04-09T03:06:06.026Z,9.69
2019-04-09T03:07:05.343Z,9.69
2019-04-09T03:08:06.422Z,9.69
2019-04-09T03:09:06.217Z,9.69
2019-04-09T03:10:05.842Z,9.81
2019-04-09T03:11:06.259Z,9.69
2019-04-09T03:12:06.629Z,9.75
2019-04-09T03:13:05.197Z,9.75
2019-04-09T03:14:05.888Z,9.69
2019-04-09T03:15:05.232Z,9.69
2019-04-09T03:16:05.752Z,9.62
2019-04-09T03:17:05.665Z,9.62
2019-04-09T03:18:05.154Z,9.62
2019-04-09T03:19:05.368Z,9.56
2019-04-09T03:20:05.450Z,9.56
2019-04-09T03:21:06.359Z,9.69
2019-04-09T03:22:06.638Z,9.75
2019-04-09T03:23:05.148Z,9.69
2019-04-09T03:24:05.736Z,9.56
2019-04-09T03:25:05.801Z,9.56
2019-04-09T03:26:05.708Z,9.50
2019-04-09T03:27:05.361Z,9.44
2019-04-09T03:28:07.938Z,9.56
2019-04-09T03:29:05.525Z,9.50
2019-04-09T03:30:05.943Z,9.50
2019-04-09T03:31:06.429Z,9.56
2019-04-09T03:32:06.127Z,9.50
2019-04-09T03:33:07.344Z,9.50
2019-04-09T03:34:07.009Z,9.44
2019-04-09T03:35:05.606Z,9.44
2019-04-09T03:36:06.864Z,9.38
2019-04-09T03:37:05.143Z,9.25
2019-04-09T03:38:06.031Z,9.19
2019-04-09T03:39:05.515Z,9.19
2019-04-09T03:40:05.773Z,9.12
2019-04-09T03:41:05.993Z,9.12
2019-04-09T03:42:05.941Z,9.12
2019-04-09T03:43:05.862Z,9.06
2019-04-09T03:44:05.680Z,9.00
2019-04-09T03:45:06.614Z,9.06
2019-04-09T03:46:05.989Z,9.06
2019-04-09T03:47:05.486Z,9.06
2019-04-09T03:48:06.665Z,9.06
2019-04-09T03:49:06.304Z,9.06
2019-04-09T03:50:05.695Z,9.00
2019-04-09T03:51:05.839Z,9.00
2019-04-09T03:52:05.207Z,8.94
2019-04-09T03:53:05.856Z,9.06
2019-04-09T03:54:06.145Z,9.06
2019-04-09T03:55:05.695Z,9.00
2019-04-09T03:56:05.961Z,9.00
2019-04-09T03:57:05.526Z,9.00
2019-04-09T03:58:13.673Z,9.00
2019-04-09T03:59:05.109Z,8.88
2019-04-09T04:00:05.969Z,8.94
2019-04-09T04:01:05.891Z,8.88
2019-04-09T04:02:05.901Z,8.88
2019-04-09T04:03:05.528Z,8.88
2019-04-09T04:04:06.039Z,8.88
2019-04-09T04:05:05.327Z,8.94
2019-04-09T04:06:06.016Z,8.88
2019-04-09T04:07:05.200Z,8.88
2019-04-09T04:08:05.127Z,8.94
2019-04-09T04:09:05.315Z,9.06
2019-04-09T04:10:07.066Z,9.00
2019-04-09T04:11:05.824Z,9.00
2019-04-09T04:12:06.209Z,9.00
2019-04-09T04:13:08.350Z,9.00
2019-04-09T04:14:05.768Z,9.00
2019-04-09T04:15:05.918Z,9.06
2019-04-09T04:16:06.051Z,9.06
2019-04-09T04:17:06.353Z,9.06
2019-04-09T04:18:05.623Z,9.00
2019-04-09T04:19:06.519Z,9.06
2019-04-09T04:20:06.603Z,9.06
2019-04-09T04:21:05.335Z,9.12
2019-04-09T04:22:05.922Z,9.12
2019-04-09T04:23:05.278Z,9.25
2019-04-09T04:24:05.793Z,9.31
2019-04-09T04:25:05.923Z,9.25
2019-04-09T04:26:06.008Z,9.25
2019-04-09T04:27:05.522Z,9.25
2019-04-09T04:28:05.758Z,9.25
2019-04-09T04:29:06.420Z,9.44
2019-04-09T04:30:06.363Z,9.38
2019-04-09T04:31:05.843Z,9.38
2019-04-09T04:32:05.206Z,9.44
2019-04-09T04:33:05.522Z,9.44
2019-04-09T04:34:06.231Z,9.44
2019-04-09T04:35:05.989Z,9.38
2019-04-09T04:36:05.357Z,9.38
2019-04-09T04:37:06.440Z,9.50
2019-04-09T04:38:05.233Z,9.56
2019-04-09T04:39:05.300Z,9.56
2019-04-09T04:40:05.899Z,9.56
2019-04-09T04:41:05.634Z,9.81
2019-04-09T04:42:05.454Z,9.81
2019-04-09T04:43:06.212Z,9.88
2019-04-09T04:44:06.085Z,9.94
2019-04-09T04:45:05.870Z,10.12
2019-04-09T04:46:05.458Z,10.25
2019-04-09T04:47:06.571Z,10.00
2019-04-09T04:48:05.379Z,9.94
2019-04-09T04:49:05.375Z,9.88
2019-04-09T04:50:05.906Z,9.75
2019-04-09T04:51:06.286Z,9.50
2019-04-09T04:52:05.778Z,9.38
2019-04-09T04:53:06.356Z,9.38
2019-04-09T04:54:05.774Z,9.31
2019-04-09T04:55:05.360Z,9.31
2019-04-09T04:56:05.778Z,9.50
2019-04-09T04:57:05.998Z,9.69
2019-04-09T04:58:06.283Z,9.81
2019-04-09T04:59:05.989Z,9.94
2019-04-09T05:00:06.758Z,10.00
2019-04-09T05:01:05.974Z,9.94
2019-04-09T05:02:05.365Z,9.88
2019-04-09T05:03:06.185Z,9.88
2019-04-09T05:04:05.616Z,9.81
2019-04-09T05:05:06.541Z,9.88
2019-04-09T05:06:05.298Z,9.62
2019-04-09T05:07:06.001Z,9.56
2019-04-09T05:08:05.530Z,9.56
2019-04-09T05:09:06.144Z,9.50
2019-04-09T05:10:05.583Z,9.44
2019-04-09T05:11:05.283Z,9.38
2019-04-09T05:12:05.595Z,9.38
2019-04-09T05:13:05.991Z,9.44
2019-04-09T05:14:05.512Z,9.69
2019-04-09T05:15:06.813Z,9.75
2019-04-09T05:16:06.242Z,9.75
2019-04-09T05:17:06.592Z,9.81
2019-04-09T05:18:05.286Z,9.75
2019-04-09T05:19:06.291Z,9.69
2019-04-09T05:20:06.003Z,9.69
2019-04-09T05:21:05.945Z,9.69
2019-04-09T05:22:06.447Z,9.69
2019-04-09T05:23:05.901Z,9.56
2019-04-09T05:24:05.876Z,9.56
2019-04-09T05:25:05.292Z,9.56
2019-04-09T05:26:05.774Z,9.56
2019-04-09T05:27:05.186Z,9.44
2019-04-09T05:28:05.304Z,9.31
2019-04-09T05:29:07.998Z,9.31
2019-04-09T05:30:05.306Z,9.19
2019-04-09T05:31:06.342Z,9.12
2019-04-09T05:32:05.712Z,9.19
2019-04-09T05:33:05.310Z,9.19
2019-04-09T05:34:05.617Z,9.25
2019-04-09T05:35:05.932Z,9.31
2019-04-09T05:36:05.567Z,9.25
2019-04-09T05:37:05.115Z,9.25
2019-04-09T05:38:05.361Z,9.25
2019-04-09T05:39:05.772Z,9.31
2019-04-09T05:40:06.254Z,9.44
2019-04-09T05:41:05.871Z,9.44
2019-04-09T05:42:05.222Z,9.44
2019-04-09T05:43:05.834Z,9.38
2019-04-09T05:44:05.451Z,9.62
2019-04-09T05:45:05.592Z,9.50
2019-04-09T05:46:05.584Z,9.50
2019-04-09T05:47:06.176Z,9.56
2019-04-09T05:48:07.314Z,9.56
2019-04-09T05:49:05.764Z,9.56
2019-04-09T05:50:06.640Z,9.56
2019-04-09T05:51:05.372Z,9.31
2019-04-09T05:52:06.144Z,9.31
2019-04-09T05:53:05.945Z,9.31
2019-04-09T05:54:05.563Z,9.19
2019-04-09T05:55:06.380Z,9.12
2019-04-09T05:56:06.114Z,9.06
2019-04-09T05:57:05.220Z,9.00
2019-04-09T05:58:05.679Z,9.00
2019-04-09T05:59:09.281Z,9.06
2019-04-09T06:00:06.034Z,9.06
2019-04-09T06:01:06.435Z,9.12
2019-04-09T06:02:05.841Z,9.12
2019-04-09T06:03:06.047Z,9.12
2019-04-09T06:04:05.698Z,9.19
2019-04-09T06:05:05.214Z,9.31
2019-04-09T06:06:05.399Z,9.38
2019-04-09T06:07:06.895Z,9.25
2019-04-09T06:08:05.576Z,9.25
2019-04-09T06:09:06.077Z,9.19
2019-04-09T06:10:05.948Z,9.06
2019-04-09T06:11:05.623Z,9.12
2019-04-09T06:12:06.592Z,9.12
2019-04-09T06:13:05.217Z,9.00
2019-04-09T06:14:06.358Z,8.94
2019-04-09T06:15:06.367Z,8.94
2019-04-09T06:16:06.164Z,9.06
2019-04-09T06:17:05.630Z,9.12
2019-04-09T06:18:05.950Z,9.00
2019-04-09T06:19:05.538Z,9.12
2019-04-09T06:20:05.775Z,9.25
2019-04-09T06:21:07.472Z,9.50
2019-04-09T06:22:05.857Z,9.50
2019-04-09T06:23:05.665Z,9.69
2019-04-09T06:24:05.370Z,9.81
2019-04-09T06:25:05.744Z,9.88
2019-04-09T06:26:07.202Z,9.75
2019-04-09T06:27:06.580Z,9.44
2019-04-09T06:28:05.897Z,9.31
2019-04-09T06:29:14.575Z,9.19
2019-04-09T06:30:05.541Z,9.12
2019-04-09T06:31:06.232Z,9.00
2019-04-09T06:32:06.761Z,9.00
2019-04-09T06:33:05.986Z,8.94
2019-04-09T06:34:05.591Z,9.00
2019-04-09T06:35:05.954Z,9.12
2019-04-09T06:36:05.874Z,9.25
2019-04-09T06:37:05.526Z,9.38
2019-04-09T06:38:05.747Z,9.25
2019-04-09T06:39:06.137Z,9.25
2019-04-09T06:40:05.888Z,9.56
2019-04-09T06:41:06.667Z,9.50
2019-04-09T06:42:05.116Z,9.56
2019-04-09T06:43:05.501Z,9.69
2019-04-09T06:44:05.118Z,9.69
2019-04-09T06:45:05.789Z,9.69
2019-04-09T06:46:05.275Z,9.50
2019-04-09T06:47:06.582Z,9.50
2019-04-09T06:48:05.133Z,9.50
2019-04-09T06:49:06.058Z,9.44
2019-04-09T06:50:05.595Z,9.69
2019-04-09T06:51:05.788Z,9.62
2019-04-09T06:52:06.275Z,9.38
2019-04-09T06:53:06.658Z,9.31
2019-04-09T06:54:05.996Z,9.19
2019-04-09T06:55:09.524Z,9.12
2019-04-09T06:56:05.988Z,9.12
2019-04-09T06:57:06.047Z,9.12
2019-04-09T06:58:06.068Z,9.00
2019-04-09T06:59:05.774Z,9.00
2019-04-09T07:00:06.560Z,9.00
2019-04-09T07:01:05.202Z,9.00
2019-04-09T07:02:05.776Z,9.00
2019-04-09T07:03:07.006Z,9.12
2019-04-09T07:04:05.839Z,9.12
2019-04-09T07:05:05.288Z,9.19
2019-04-09T07:06:06.107Z,9.00
2019-04-09T07:07:05.688Z,9.19
2019-04-09T07:08:06.099Z,9.31
2019-04-09T07:09:06.619Z,9.44
2019-04-09T07:10:05.767Z,9.38
2019-04-09T07:11:11.381Z,9.44
2019-04-09T07:12:08.514Z,9.31
2019-04-09T07:13:05.285Z,9.31
2019-04-09T07:14:06.295Z,9.25
2019-04-09T07:15:05.418Z,9.25
2019-04-09T07:16:05.527Z,9.31
2019-04-09T07:17:05.771Z,9.31
2019-04-09T07:18:05.547Z,9.31
2019-04-09T07:19:05.880Z,9.31
2019-04-09T07:20:05.949Z,9.38
2019-04-09T07:21:05.947Z,9.62
2019-04-09T07:22:05.278Z,9.62
2019-04-09T07:23:05.796Z,9.56
2019-04-09T07:24:05.348Z,9.69
2019-04-09T07:25:06.027Z,9.75
2019-04-09T07:26:06.417Z,9.75
2019-04-09T07:27:05.909Z,9.69
2019-04-09T07:28:05.280Z,9.62
2019-04-09T07:29:06.212Z,9.56
2019-04-09T07:30:08.428Z,9.56
2019-04-09T07:31:06.462Z,9.81
2019-04-09T07:32:06.906Z,9.88
2019-04-09T07:33:11.081Z,9.88
2019-04-09T07:34:05.722Z,9.88
2019-04-09T07:35:06.324Z,9.69
2019-04-09T07:36:07.274Z,9.62
2019-04-09T07:37:07.542Z,9.56
2019-04-09T07:38:05.578Z,9.81
2019-04-09T07:39:05.925Z,9.75
2019-04-09T07:40:06.153Z,9.69
2019-04-09T07:41:07.993Z,9.62
2019-04-09T07:42:05.183Z,9.50
2019-04-09T07:43:06.769Z,9.44
2019-04-09T07:44:05.726Z,9.50
2019-04-09T07:45:10.216Z,9.81
2019-04-09T07:46:07.013Z,10.00
2019-04-09T07:47:06.231Z,10.12
2019-04-09T07:48:05.469Z,10.19
2019-04-09T07:49:05.721Z,10.12
2019-04-09T07:50:07.864Z,10.06
2019-04-09T07:51:05.459Z,10.06
2019-04-09T07:52:08.571Z,10.06
2019-04-09T07:53:06.192Z,10.12
2019-04-09T07:54:06.218Z,10.00
2019-04-09T07:55:06.686Z,9.94
2019-04-09T07:56:05.133Z,9.75
2019-04-09T07:57:05.918Z,9.56
2019-04-09T07:58:07.994Z,9.44
2019-04-09T07:59:05.856Z,9.44
2019-04-09T08:00:14.114Z,9.50
2019-04-09T08:01:06.346Z,9.56
2019-04-09T08:02:06.322Z,9.50
2019-04-09T08:03:05.837Z,9.56
2019-04-09T08:04:07.406Z,9.62
2019-04-09T08:05:05.382Z,9.62
2019-04-09T08:06:05.427Z,9.88
2019-04-09T08:07:06.299Z,10.12
2019-04-09T08:08:07.725Z,10.25
2019-04-09T08:09:05.443Z,10.31
2019-04-09T08:10:06.123Z,10.38
2019-04-09T08:11:07.211Z,10.50
2019-04-09T08:12:05.298Z,10.38
2019-04-09T08:13:05.788Z,10.25
2019-04-09T08:14:05.463Z,10.25
2019-04-09T08:15:06.139Z,10.38
2019-04-09T08:16:06.724Z,10.38
2019-04-09T08:17:05.110Z,10.44
2019-04-09T08:18:08.090Z,10.44
2019-04-09T08:19:05.776Z,10.38
2019-04-09T08:20:05.880Z,10.38
2019-04-09T08:21:06.239Z,10.38
2019-04-09T08:22:07.205Z,10.50
2019-04-09T08:23:05.617Z,10.50
2019-04-09T08:24:05.927Z,10.44
2019-04-09T08:25:06.362Z,10.44
2019-04-09T08:26:06.657Z,10.25
2019-04-09T08:27:08.108Z,10.12
2019-04-09T08:28:06.753Z,10.06
2019-04-09T08:29:05.258Z,10.06
2019-04-09T08:30:17.815Z,10.06
2019-04-09T08:31:05.698Z,10.06
2019-04-09T08:32:11.900Z,10.06
2019-04-09T08:33:06.258Z,10.06
2019-04-09T08:34:06.358Z,10.19
2019-04-09T08:35:06.304Z,10.38
2019-04-09T08:36:09.116Z,10.38
2019-04-09T08:37:05.461Z,10.50
2019-04-09T08:38:06.618Z,10.50
2019-04-09T08:39:06.267Z,10.44
2019-04-09T08:40:08.802Z,10.31
2019-04-09T08:41:06.390Z,10.19
2019-04-09T08:42:06.572Z,10.25
2019-04-09T08:43:07.734Z,10.38
2019-04-09T08:44:06.900Z,10.50
2019-04-09T08:45:07.091Z,10.75
2019-04-09T08:46:06.016Z,10.75
2019-04-09T08:47:06.483Z,10.75
2019-04-09T08:48:10.867Z,10.81
2019-04-09T08:49:05.701Z,10.62
2019-04-09T08:50:05.669Z,10.75
2019-04-09T08:51:05.980Z,10.88
2019-04-09T08:52:07.910Z,10.81
2019-04-09T08:53:06.420Z,10.75
2019-04-09T08:54:06.691Z,10.75
2019-04-09T08:55:05.300Z,10.94
2019-04-09T08:56:06.750Z,10.81
2019-04-09T08:57:06.174Z,10.69
2019-04-09T08:58:06.183Z,10.81
2019-04-09T08:59:05.531Z,10.88
2019-04-09T09:00:06.076Z,10.94
2019-04-09T09:01:31.625Z,10.69
2019-04-09T09:02:18.887Z,10.44
2019-04-09T09:03:06.421Z,10.31
2019-04-09T09:04:08.643Z,10.19
2019-04-09T09:05:12.749Z,10.19
2019-04-09T09:06:09.471Z,10.19
2019-04-09T09:07:05.223Z,10.12
2019-04-09T09:08:07.200Z,10.06
2019-04-09T09:09:07.882Z,10.06
2019-04-09T09:10:05.762Z,10.12
2019-04-09T09:11:06.170Z,10.12
2019-04-09T09:12:07.786Z,10.25
2019-04-09T09:13:05.417Z,10.19
2019-04-09T09:14:06.016Z,10.12
2019-04-09T09:15:05.798Z,10.06
2019-04-09T09:16:05.757Z,10.12
2019-04-09T09:17:07.986Z,10.06
2019-04-09T09:18:05.647Z,10.06
2019-04-09T09:19:06.545Z,10.00
2019-04-09T09:20:05.622Z,10.12
2019-04-09T09:21:13.647Z,10.44
2019-04-09T09:22:06.274Z,10.44
2019-04-09T09:23:06.029Z,10.19
2019-04-09T09:24:06.298Z,10.19
2019-04-09T09:25:06.133Z,10.06
2019-04-09T09:26:07.362Z,10.38
2019-04-09T09:27:09.753Z,10.50
2019-04-09T09:28:05.705Z,10.50
2019-04-09T09:29:06.904Z,10.56
2019-04-09T09:30:06.110Z,10.56
2019-04-09T09:31:13.204Z,10.75
2019-04-09T09:32:06.035Z,10.94
2019-04-09T09:33:08.539Z,11.06
2019-04-09T09:34:06.508Z,11.12
2019-04-09T09:35:06.075Z,11.19
2019-04-09T09:36:07.303Z,11.19
2019-04-09T09:37:08.752Z,11.19
2019-04-09T09:38:05.304Z,11.12
2019-04-09T09:39:05.677Z,11.06
2019-04-09T09:40:05.219Z,10.94
2019-04-09T09:41:06.461Z,10.88
2019-04-09T09:42:05.136Z,10.88
2019-04-09T09:43:06.031Z,10.94
2019-04-09T09:44:05.219Z,11.00
2019-04-09T09:45:06.393Z,10.88
2019-04-09T09:46:06.249Z,11.00
2019-04-09T09:47:06.636Z,10.94
2019-04-09T09:48:05.765Z,11.00
2019-04-09T09:49:06.249Z,11.00
2019-04-09T09:50:07.538Z,11.06
2019-04-09T09:51:05.603Z,10.94
2019-04-09T09:52:06.859Z,10.81
2019-04-09T09:53:06.364Z,10.81
2019-04-09T09:54:07.177Z,10.88
2019-04-09T09:55:08.065Z,10.75
2019-04-09T09:56:06.519Z,10.75
2019-04-09T09:57:07.762Z,11.06
2019-04-09T09:58:05.458Z,11.19
2019-04-09T09:59:05.598Z,11.44
2019-04-09T10:00:07.929Z,11.56
2019-04-09T10:01:11.758Z,11.75
2019-04-09T10:02:06.315Z,11.69
2019-04-09T10:03:08.501Z,11.62
2019-04-09T10:04:05.628Z,11.50
2019-04-09T10:05:05.699Z,11.44
2019-04-09T10:06:12.426Z,11.25
2019-04-09T10:07:06.494Z,11.12
2019-04-09T10:08:07.711Z,11.00
2019-04-09T10:09:05.832Z,11.06
2019-04-09T10:10:06.558Z,11.00
2019-04-09T10:11:05.132Z,10.81
2019-04-09T10:12:08.830Z,11.12
2019-04-09T10:13:06.693Z,11.12
2019-04-09T10:14:05.772Z,11.12
2019-04-09T10:15:08.158Z,11.06
2019-04-09T10:16:06.868Z,11.06
2019-04-09T10:17:05.500Z,11.19
2019-04-09T10:18:06.427Z,11.12
2019-04-09T10:19:11.332Z,10.88
2019-04-09T10:20:05.962Z,10.75
2019-04-09T10:21:07.191Z,10.75
2019-04-09T10:22:05.689Z,10.81
2019-04-09T10:23:06.745Z,10.69
2019-04-09T10:24:11.149Z,10.75
2019-04-09T10:25:05.929Z,10.81
2019-04-09T10:26:08.893Z,10.94
2019-04-09T10:27:09.580Z,11.12
2019-04-09T10:28:06.972Z,11.06
2019-04-09T10:29:10.783Z,11.12
2019-04-09T10:30:08.509Z,11.19
2019-04-09T10:31:17.588Z,11.31
2019-04-09T10:32:08.628Z,11.25
2019-04-09T10:33:10.381Z,11.56
2019-04-09T10:34:06.033Z,11.50
2019-04-09T10:35:07.681Z,11.69
2019-04-09T10:36:06.821Z,11.44
2019-04-09T10:37:08.347Z,11.31
2019-04-09T10:38:06.511Z,11.06
2019-04-09T10:39:05.501Z,11.06
2019-04-09T10:40:07.410Z,11.00
2019-04-09T10:41:16.220Z,11.06
2019-04-09T10:42:06.789Z,11.00
2019-04-09T10:43:07.073Z,11.06
2019-04-09T10:44:05.586Z,11.12
2019-04-09T10:45:06.018Z,11.44
2019-04-09T10:46:05.696Z,11.69
2019-04-09T10:47:07.416Z,11.75
2019-04-09T10:48:06.293Z,11.81
2019-04-09T10:49:05.944Z,11.88
2019-04-09T10:50:05.792Z,11.94
2019-04-09T10:51:07.253Z,11.94
2019-04-09T10:52:05.934Z,11.81
2019-04-09T10:53:05.554Z,11.69
2019-04-09T10:54:06.771Z,11.62
2019-04-09T10:55:05.904Z,11.62
2019-04-09T10:56:05.775Z,11.56
2019-04-09T10:57:08.771Z,11.62
2019-04-09T10:58:06.875Z,11.69
2019-04-09T10:59:06.665Z,11.69
2019-04-09T11:00:07.406Z,11.44
2019-04-09T11:01:09.666Z,11.31
2019-04-09T11:02:06.807Z,11.12
2019-04-09T11:03:06.231Z,11.12
2019-04-09T11:04:09.707Z,11.12
2019-04-09T11:05:05.763Z,11.19
2019-04-09T11:06:05.218Z,11.19
2019-04-09T11:07:06.286Z,11.25
2019-04-09T11:08:06.889Z,11.31
2019-04-09T11:09:05.606Z,11.19
2019-04-09T11:10:13.380Z,11.00
2019-04-09T11:11:06.373Z,11.00
2019-04-09T11:12:06.839Z,10.88
2019-04-09T11:13:05.678Z,10.81
2019-04-09T11:14:07.387Z,10.69
2019-04-09T11:15:05.443Z,10.62
2019-04-09T11:16:06.105Z,10.69
2019-04-09T11:17:06.610Z,10.62
2019-04-09T11:18:08.345Z,10.56
2019-04-09T11:19:05.736Z,10.56
2019-04-09T11:20:05.228Z,10.50
2019-04-09T11:21:07.694Z,10.56
2019-04-09T11:22:05.997Z,10.56
2019-04-09T11:23:05.521Z,10.56
2019-04-09T11:24:05.691Z,10.44
2019-04-09T11:25:06.192Z,10.38
2019-04-09T11:26:08.092Z,10.38
2019-04-09T11:27:05.742Z,10.25
2019-04-09T11:28:07.124Z,10.31
2019-04-09T11:29:05.613Z,10.31
2019-04-09T11:30:05.646Z,10.19
2019-04-09T11:31:06.219Z,10.06
2019-04-09T11:32:08.538Z,9.94
2019-04-09T11:33:06.595Z,9.88
2019-04-09T11:34:06.891Z,9.94
2019-04-09T11:35:06.140Z,10.06
2019-04-09T11:36:05.616Z,10.31
2019-04-09T11:37:06.081Z,10.38
2019-04-09T11:38:05.568Z,10.38
2019-04-09T11:39:05.219Z,10.38
2019-04-09T11:40:05.822Z,10.38
2019-04-09T11:41:07.880Z,10.38
2019-04-09T11:42:05.944Z,10.44
2019-04-09T11:43:05.707Z,10.50
2019-04-09T11:44:06.784Z,10.50
2019-04-09T11:45:05.382Z,10.69
2019-04-09T11:46:06.151Z,10.56
2019-04-09T11:47:06.317Z,10.44
2019-04-09T11:48:05.704Z,10.69
2019-04-09T11:49:05.218Z,10.62
2019-04-09T11:50:05.675Z,10.44
2019-04-09T11:51:05.523Z,10.56
2019-04-09T11:52:05.835Z,10.56
2019-04-09T11:53:05.937Z,10.62
2019-04-09T11:54:06.326Z,10.75
2019-04-09T11:55:06.801Z,10.94
2019-04-09T11:56:05.389Z,10.69
2019-04-09T11:57:06.492Z,10.50
2019-04-09T11:58:05.779Z,10.38
2019-04-09T11:59:05.111Z,10.38
2019-04-09T12:00:05.755Z,10.38
2019-04-09T12:01:06.052Z,10.31
2019-04-09T12:02:10.029Z,10.44
2019-04-09T12:03:06.455Z,10.69
2019-04-09T12:04:05.598Z,10.88
2019-04-09T12:05:05.261Z,10.88
2019-04-09T12:06:05.358Z,10.62
2019-04-09T12:07:06.136Z,10.50
2019-04-09T12:08:06.487Z,10.38
2019-04-09T12:09:06.112Z,10.38
2019-04-09T12:10:05.949Z,10.38
2019-04-09T12:11:05.376Z,10.19
2019-04-09T12:12:05.611Z,10.19
2019-04-09T12:13:06.394Z,10.12
2019-04-09T12:14:05.211Z,10.06
2019-04-09T12:15:05.300Z,10.06
2019-04-09T12:16:05.222Z,10.00
2019-04-09T12:17:05.949Z,10.06
2019-04-09T12:18:07.323Z,10.12
2019-04-09T12:19:06.292Z,10.19
2019-04-09T12:20:09.338Z,10.25
2019-04-09T12:21:05.998Z,10.12
2019-04-09T12:22:05.819Z,10.12
2019-04-09T12:23:05.836Z,10.06
2019-04-09T12:24:05.703Z,10.12
2019-04-09T12:25:05.287Z,10.50
2019-04-09T12:26:06.192Z,10.38
2019-04-09T12:27:06.634Z,10.31
2019-04-09T12:28:05.370Z,10.31
2019-04-09T12:29:11.138Z,10.19
2019-04-09T12:30:06.909Z,10.19
2019-04-09T12:31:06.019Z,10.31
2019-04-09T12:32:16.208Z,10.56
2019-04-09T12:33:06.677Z,10.50
2019-04-09T12:34:06.233Z,10.69
2019-04-09T12:35:06.612Z,10.69
2019-04-09T12:36:06.621Z,10.56
2019-04-09T12:37:05.284Z,10.56
2019-04-09T12:38:06.109Z,10.50
2019-04-09T12:39:05.777Z,10.62
2019-04-09T12:40:06.538Z,10.62
2019-04-09T12:41:05.574Z,10.50
2019-04-09T12:42:06.094Z,10.56
2019-04-09T12:43:05.834Z,10.62
2019-04-09T12:44:06.041Z,10.75
2019-04-09T12:45:05.244Z,10.81
2019-04-09T12:46:05.926Z,10.81
2019-04-09T12:47:06.000Z,10.69
2019-04-09T12:48:06.404Z,10.75
2019-04-09T12:49:05.058Z,10.81
2019-04-09T12:50:05.638Z,10.88
2019-04-09T12:51:06.747Z,10.62
2019-04-09T12:52:05.553Z,10.50
2019-04-09T12:53:05.813Z,10.38
2019-04-09T12:54:06.289Z,10.50
2019-04-09T12:55:06.523Z,10.44
2019-04-09T12:56:06.844Z,10.38
2019-04-09T12:57:05.899Z,10.44
2019-04-09T12:58:06.218Z,10.44
2019-04-09T12:59:05.889Z,10.44
2019-04-09T13:00:05.606Z,10.44
2019-04-09T13:01:06.470Z,10.38
2019-04-09T13:02:05.218Z,10.62
2019-04-09T13:03:05.501Z,10.56
2019-04-09T13:04:05.548Z,10.56